首页
METAR-TAF:

METAR-TAF

机场 :

Homestead, 佛罗里达州, 美国

纬度: 25-29N, 经度: 080-23W, 海拔: 2米

当前天气观测

该预报发布于23分钟前的17:05 UTC
静风
温度 26°C
湿度 89%
气压 1015 hPa
能見度: 16.1公里
散云层高于5000英尺
多云层高于21000英尺
小雨

METAR: KHST 041705Z AUTO 00000KT 10SM -RA SCT050 BKN210 26/24 A2998 RMK AO2 LTG DSNT NE RAE1659RAB05 SLP156

时间: 13:28 (17:28 UTC)

预报

该预报发布于1小时和18分钟前的16:10 UTC
预报有效从04日的 16点(UTC)到 05日的 17点(UTC)
风速10节,风向西转西南,有时为15节阵风
能見度: 4800
多云层高于3000英尺
多云层高于6000英尺
小阵雨, 附近有雷暴
短暂存在
从 04日的 16点(UTC)到 04日的 20点(UTC)
风速20节,风向多变,有时为35节阵风
能見度: 0800
散云层高于500英尺
多云层高于1500英尺, 积雨云.
雷暴, 雨
成为
从 04日的 23点(UTC)到 04日的 24点(UTC)
风速5节,风向西南
能见度10公里或以上
多云层高于2500英尺
多云层高于4000英尺

TAF: KHST 041610Z 0416/0517 25010G15KT 4800 -SHRA VCTS BKN030 BKN060 QNH2993INS TEMPO 0416/0420 VRB20G35KT 0800 TSRA SCT005 BKN015CB BECMG 0423/0424 23005KT 9999 NSW BKN025 BKN040 QNH2994INS TX33/0419Z TN26/0511Z

超过4000个机场的气象观测和天气预报(METAR&TAF报告)。

可查询的气象台以黄色和红色小点在地图上表示。

将鼠标移到小点上方,可查看气象台名称。

然后点击查看天气观测和预报。

如需切换地图:点击带黑十字的绿色按钮放大地图;点击带横线的绿色按钮缩小地图;或者点击绿色箭头查看邻近地区的地图。


METAR-TAF: